sensor_id;sensor_type;location;lat;lon;timestamp;P1;durP1;ratioP1;P2;durP2;ratioP2
16624;SDS011;8426;48.496;9.098;2022-11-20T00:10:13;3.97;;;2.20;;
16624;SDS011;8426;48.496;9.098;2022-11-20T00:15:18;3.90;;;2.13;;
16624;SDS011;8426;48.496;9.098;2022-11-20T00:20:23;3.73;;;2.10;;
16624;SDS011;8426;48.496;9.098;2022-11-20T00:25:36;5.13;;;2.17;;
16624;SDS011;8426;48.496;9.098;2022-11-20T00:30:39;5.27;;;2.37;;
16624;SDS011;8426;48.496;9.098;2022-11-20T00:35:43;3.63;;;2.23;;
16624;SDS011;8426;48.496;9.098;2022-11-20T00:40:58;5.07;;;2.30;;
16624;SDS011;8426;48.496;9.098;2022-11-20T00:51:16;3.37;;;2.30;;
16624;SDS011;8426;48.496;9.098;2022-11-20T00:56:22;3.60;;;2.27;;
16624;SDS011;8426;48.496;9.098;2022-11-20T01:01:25;4.53;;;2.50;;
16624;SDS011;8426;48.496;9.098;2022-11-20T01:06:36;4.83;;;3.00;;
16624;SDS011;8426;48.496;9.098;2022-11-20T01:11:53;7.10;;;3.60;;
16624;SDS011;8426;48.496;9.098;2022-11-20T01:17:03;10.83;;;3.67;;
16624;SDS011;8426;48.496;9.098;2022-11-20T01:22:08;9.57;;;3.80;;
16624;SDS011;8426;48.496;9.098;2022-11-20T01:27:13;6.50;;;3.53;;
16624;SDS011;8426;48.496;9.098;2022-11-20T01:37:22;6.73;;;3.60;;
16624;SDS011;8426;48.496;9.098;2022-11-20T01:42:29;5.10;;;3.30;;
16624;SDS011;8426;48.496;9.098;2022-11-20T01:48:15;5.10;;;3.37;;
16624;SDS011;8426;48.496;9.098;2022-11-20T01:53:21;5.67;;;3.20;;
16624;SDS011;8426;48.496;9.098;2022-11-20T01:58:31;8.00;;;3.87;;
16624;SDS011;8426;48.496;9.098;2022-11-20T02:03:37;7.37;;;3.67;;
16624;SDS011;8426;48.496;9.098;2022-11-20T02:08:41;7.53;;;3.80;;
16624;SDS011;8426;48.496;9.098;2022-11-20T02:13:46;5.57;;;3.33;;
16624;SDS011;8426;48.496;9.098;2022-11-20T02:18:57;4.67;;;2.97;;
16624;SDS011;8426;48.496;9.098;2022-11-20T02:24:08;4.73;;;3.40;;
16624;SDS011;8426;48.496;9.098;2022-11-20T02:29:14;5.80;;;3.00;;
16624;SDS011;8426;48.496;9.098;2022-11-20T02:34:21;5.70;;;2.50;;
16624;SDS011;8426;48.496;9.098;2022-11-20T02:39:27;5.23;;;2.50;;
16624;SDS011;8426;48.496;9.098;2022-11-20T02:44:32;3.57;;;2.20;;
16624;SDS011;8426;48.496;9.098;2022-11-20T02:54:45;4.95;;;2.05;;
16624;SDS011;8426;48.496;9.098;2022-11-20T02:59:51;4.83;;;2.23;;
16624;SDS011;8426;48.496;9.098;2022-11-20T03:05:03;4.20;;;2.10;;
16624;SDS011;8426;48.496;9.098;2022-11-20T03:10:18;7.30;;;2.08;;
16624;SDS011;8426;48.496;9.098;2022-11-20T03:15:24;3.37;;;2.23;;
16624;SDS011;8426;48.496;9.098;2022-11-20T03:20:27;3.25;;;1.83;;
16624;SDS011;8426;48.496;9.098;2022-11-20T03:25:32;5.35;;;1.83;;
16624;SDS011;8426;48.496;9.098;2022-11-20T03:36:14;2.47;;;1.53;;
16624;SDS011;8426;48.496;9.098;2022-11-20T03:41:20;3.27;;;1.80;;
16624;SDS011;8426;48.496;9.098;2022-11-20T03:46:26;3.80;;;1.90;;
16624;SDS011;8426;48.496;9.098;2022-11-20T03:51:31;3.90;;;1.50;;
16624;SDS011;8426;48.496;9.098;2022-11-20T03:56:37;2.37;;;1.80;;
16624;SDS011;8426;48.496;9.098;2022-11-20T04:01:41;5.27;;;1.80;;
16624;SDS011;8426;48.496;9.098;2022-11-20T04:06:49;3.28;;;1.73;;
16624;SDS011;8426;48.496;9.098;2022-11-20T04:11:54;3.13;;;1.38;;
16624;SDS011;8426;48.496;9.098;2022-11-20T04:16:58;2.22;;;1.27;;
16624;SDS011;8426;48.496;9.098;2022-11-20T04:22:01;4.25;;;1.33;;
16624;SDS011;8426;48.496;9.098;2022-11-20T04:27:06;1.70;;;1.20;;
16624;SDS011;8426;48.496;9.098;2022-11-20T04:32:10;3.28;;;1.20;;
16624;SDS011;8426;48.496;9.098;2022-11-20T04:37:14;4.40;;;1.15;;
16624;SDS011;8426;48.496;9.098;2022-11-20T04:42:19;1.13;;;0.93;;
16624;SDS011;8426;48.496;9.098;2022-11-20T04:47:31;2.75;;;1.40;;
16624;SDS011;8426;48.496;9.098;2022-11-20T04:52:34;6.38;;;1.38;;
16624;SDS011;8426;48.496;9.098;2022-11-20T04:57:39;13.55;;;1.20;;
16624;SDS011;8426;48.496;9.098;2022-11-20T05:02:42;5.05;;;1.40;;
16624;SDS011;8426;48.496;9.098;2022-11-20T05:07:46;2.13;;;1.00;;
16624;SDS011;8426;48.496;9.098;2022-11-20T05:12:51;1.67;;;1.10;;
16624;SDS011;8426;48.496;9.098;2022-11-20T05:17:54;2.03;;;1.17;;
16624;SDS011;8426;48.496;9.098;2022-11-20T05:22:57;2.30;;;1.15;;
16624;SDS011;8426;48.496;9.098;2022-11-20T05:28:02;2.30;;;1.50;;
16624;SDS011;8426;48.496;9.098;2022-11-20T05:33:29;5.15;;;1.27;;
16624;SDS011;8426;48.496;9.098;2022-11-20T05:38:33;3.60;;;1.15;;
16624;SDS011;8426;48.496;9.098;2022-11-20T05:43:39;2.00;;;0.98;;
16624;SDS011;8426;48.496;9.098;2022-11-20T05:48:44;2.97;;;1.08;;
16624;SDS011;8426;48.496;9.098;2022-11-20T05:53:49;3.60;;;1.10;;
16624;SDS011;8426;48.496;9.098;2022-11-20T05:58:54;1.20;;;1.10;;
16624;SDS011;8426;48.496;9.098;2022-11-20T06:03:59;2.60;;;1.13;;
16624;SDS011;8426;48.496;9.098;2022-11-20T06:09:02;1.83;;;1.00;;
16624;SDS011;8426;48.496;9.098;2022-11-20T06:14:07;1.55;;;1.00;;
16624;SDS011;8426;48.496;9.098;2022-11-20T06:19:11;3.03;;;1.30;;
16624;SDS011;8426;48.496;9.098;2022-11-20T06:24:15;1.60;;;1.10;;
16624;SDS011;8426;48.496;9.098;2022-11-20T06:29:20;1.60;;;1.20;;
16624;SDS011;8426;48.496;9.098;2022-11-20T06:34:24;2.17;;;1.20;;
16624;SDS011;8426;48.496;9.098;2022-11-20T06:39:27;2.93;;;1.40;;
16624;SDS011;8426;48.496;9.098;2022-11-20T06:49:36;1.33;;;1.00;;
16624;SDS011;8426;48.496;9.098;2022-11-20T06:54:40;1.55;;;1.20;;
16624;SDS011;8426;48.496;9.098;2022-11-20T06:59:45;3.42;;;1.25;;
16624;SDS011;8426;48.496;9.098;2022-11-20T07:04:49;1.45;;;1.00;;
16624;SDS011;8426;48.496;9.098;2022-11-20T07:09:52;0.87;;;0.83;;
16624;SDS011;8426;48.496;9.098;2022-11-20T07:14:57;2.60;;;1.08;;
16624;SDS011;8426;48.496;9.098;2022-11-20T07:20:01;3.70;;;1.07;;
16624;SDS011;8426;48.496;9.098;2022-11-20T07:25:07;1.55;;;1.08;;
16624;SDS011;8426;48.496;9.098;2022-11-20T07:30:13;1.33;;;1.10;;
16624;SDS011;8426;48.496;9.098;2022-11-20T07:35:18;1.90;;;0.95;;
16624;SDS011;8426;48.496;9.098;2022-11-20T07:40:21;1.67;;;0.93;;
16624;SDS011;8426;48.496;9.098;2022-11-20T07:45:26;2.40;;;1.27;;
16624;SDS011;8426;48.496;9.098;2022-11-20T07:50:30;2.28;;;1.00;;
16624;SDS011;8426;48.496;9.098;2022-11-20T07:55:41;2.65;;;1.00;;
16624;SDS011;8426;48.496;9.098;2022-11-20T08:06:31;1.60;;;0.90;;
16624;SDS011;8426;48.496;9.098;2022-11-20T08:11:35;0.70;;;0.70;;
16624;SDS011;8426;48.496;9.098;2022-11-20T08:17:04;0.95;;;0.80;;
16624;SDS011;8426;48.496;9.098;2022-11-20T08:22:23;1.13;;;0.85;;
16624;SDS011;8426;48.496;9.098;2022-11-20T08:27:27;0.82;;;0.55;;
16624;SDS011;8426;48.496;9.098;2022-11-20T08:32:32;2.35;;;0.80;;
16624;SDS011;8426;48.496;9.098;2022-11-20T08:37:39;1.10;;;0.88;;
16624;SDS011;8426;48.496;9.098;2022-11-20T08:42:47;0.95;;;0.70;;
16624;SDS011;8426;48.496;9.098;2022-11-20T08:47:52;0.57;;;0.57;;
16624;SDS011;8426;48.496;9.098;2022-11-20T08:53:01;2.75;;;0.70;;
16624;SDS011;8426;48.496;9.098;2022-11-20T08:58:06;0.93;;;0.52;;
16624;SDS011;8426;48.496;9.098;2022-11-20T09:08:32;1.05;;;0.75;;
16624;SDS011;8426;48.496;9.098;2022-11-20T09:13:37;1.15;;;0.70;;
16624;SDS011;8426;48.496;9.098;2022-11-20T09:18:44;0.50;;;0.50;;
16624;SDS011;8426;48.496;9.098;2022-11-20T09:24:04;0.95;;;0.75;;
16624;SDS011;8426;48.496;9.098;2022-11-20T09:29:14;0.85;;;0.70;;
16624;SDS011;8426;48.496;9.098;2022-11-20T09:34:25;0.70;;;0.50;;
16624;SDS011;8426;48.496;9.098;2022-11-20T09:39:28;1.02;;;0.57;;
16624;SDS011;8426;48.496;9.098;2022-11-20T09:44:40;0.60;;;0.60;;
16624;SDS011;8426;48.496;9.098;2022-11-20T09:50:11;0.90;;;0.60;;
16624;SDS011;8426;48.496;9.098;2022-11-20T09:55:24;2.25;;;0.80;;
16624;SDS011;8426;48.496;9.098;2022-11-20T10:00:34;1.40;;;0.60;;
16624;SDS011;8426;48.496;9.098;2022-11-20T10:05:43;0.60;;;0.60;;
16624;SDS011;8426;48.496;9.098;2022-11-20T10:10:58;1.25;;;0.50;;
16624;SDS011;8426;48.496;9.098;2022-11-20T10:21:53;0.85;;;0.60;;
16624;SDS011;8426;48.496;9.098;2022-11-20T10:27:10;1.30;;;0.73;;
16624;SDS011;8426;48.496;9.098;2022-11-20T10:32:37;0.82;;;0.60;;
16624;SDS011;8426;48.496;9.098;2022-11-20T10:37:44;1.05;;;0.70;;
16624;SDS011;8426;48.496;9.098;2022-11-20T10:42:52;0.93;;;0.50;;
16624;SDS011;8426;48.496;9.098;2022-11-20T10:48:04;1.52;;;0.80;;
16624;SDS011;8426;48.496;9.098;2022-11-20T10:53:18;2.67;;;0.85;;
16624;SDS011;8426;48.496;9.098;2022-11-20T10:58:33;1.00;;;0.70;;
16624;SDS011;8426;48.496;9.098;2022-11-20T11:03:44;0.68;;;0.50;;
16624;SDS011;8426;48.496;9.098;2022-11-20T11:08:50;0.93;;;0.63;;
16624;SDS011;8426;48.496;9.098;2022-11-20T11:14:04;1.02;;;0.68;;
16624;SDS011;8426;48.496;9.098;2022-11-20T11:19:11;0.70;;;0.50;;
16624;SDS011;8426;48.496;9.098;2022-11-20T11:24:20;0.93;;;0.50;;
16624;SDS011;8426;48.496;9.098;2022-11-20T11:35:22;0.50;;;0.50;;
16624;SDS011;8426;48.496;9.098;2022-11-20T11:40:30;1.08;;;0.50;;
16624;SDS011;8426;48.496;9.098;2022-11-20T11:45:35;1.05;;;0.52;;
16624;SDS011;8426;48.496;9.098;2022-11-20T11:50:47;1.35;;;0.68;;
16624;SDS011;8426;48.496;9.098;2022-11-20T11:56:09;1.33;;;0.60;;
16624;SDS011;8426;48.496;9.098;2022-11-20T12:06:45;0.50;;;0.40;;
16624;SDS011;8426;48.496;9.098;2022-11-20T12:11:55;1.77;;;0.95;;
16624;SDS011;8426;48.496;9.098;2022-11-20T12:17:12;1.13;;;0.60;;
16624;SDS011;8426;48.496;9.098;2022-11-20T12:22:18;2.92;;;0.57;;
16624;SDS011;8426;48.496;9.098;2022-11-20T12:27:41;1.40;;;0.60;;
16624;SDS011;8426;48.496;9.098;2022-11-20T12:38:48;1.27;;;0.52;;
16624;SDS011;8426;48.496;9.098;2022-11-20T12:44:02;1.13;;;0.63;;
16624;SDS011;8426;48.496;9.098;2022-11-20T12:49:37;0.40;;;0.40;;
16624;SDS011;8426;48.496;9.098;2022-11-20T12:54:56;2.03;;;0.60;;
16624;SDS011;8426;48.496;9.098;2022-11-20T13:00:14;3.05;;;0.60;;
16624;SDS011;8426;48.496;9.098;2022-11-20T13:05:20;3.50;;;0.68;;
16624;SDS011;8426;48.496;9.098;2022-11-20T13:10:31;0.80;;;0.70;;
16624;SDS011;8426;48.496;9.098;2022-11-20T13:15:44;1.77;;;0.70;;
16624;SDS011;8426;48.496;9.098;2022-11-20T13:20:56;2.33;;;0.80;;
16624;SDS011;8426;48.496;9.098;2022-11-20T13:26:04;2.50;;;0.68;;
16624;SDS011;8426;48.496;9.098;2022-11-20T13:31:10;3.20;;;0.82;;
16624;SDS011;8426;48.496;9.098;2022-11-20T13:36:32;2.13;;;0.70;;
16624;SDS011;8426;48.496;9.098;2022-11-20T13:41:38;1.13;;;0.60;;
16624;SDS011;8426;48.496;9.098;2022-11-20T13:46:44;4.57;;;0.60;;
16624;SDS011;8426;48.496;9.098;2022-11-20T13:51:49;2.45;;;1.00;;
16624;SDS011;8426;48.496;9.098;2022-11-20T13:56:58;3.10;;;0.70;;
16624;SDS011;8426;48.496;9.098;2022-11-20T14:02:11;0.60;;;0.55;;
16624;SDS011;8426;48.496;9.098;2022-11-20T14:07:20;2.03;;;0.60;;
16624;SDS011;8426;48.496;9.098;2022-11-20T14:12:27;1.70;;;0.60;;
16624;SDS011;8426;48.496;9.098;2022-11-20T14:17:34;1.13;;;0.57;;
16624;SDS011;8426;48.496;9.098;2022-11-20T14:22:38;1.73;;;0.63;;
16624;SDS011;8426;48.496;9.098;2022-11-20T14:27:43;0.40;;;0.40;;
16624;SDS011;8426;48.496;9.098;2022-11-20T14:32:50;0.85;;;0.50;;
16624;SDS011;8426;48.496;9.098;2022-11-20T14:37:56;2.42;;;0.60;;
16624;SDS011;8426;48.496;9.098;2022-11-20T14:43:01;0.85;;;0.50;;
16624;SDS011;8426;48.496;9.098;2022-11-20T14:48:20;2.00;;;0.88;;
16624;SDS011;8426;48.496;9.098;2022-11-20T14:53:28;1.13;;;0.70;;
16624;SDS011;8426;48.496;9.098;2022-11-20T14:58:32;1.88;;;0.50;;
16624;SDS011;8426;48.496;9.098;2022-11-20T15:03:38;1.10;;;0.70;;
16624;SDS011;8426;48.496;9.098;2022-11-20T15:08:50;2.72;;;1.17;;
16624;SDS011;8426;48.496;9.098;2022-11-20T15:13:54;1.25;;;0.77;;
16624;SDS011;8426;48.496;9.098;2022-11-20T15:18:58;2.83;;;1.00;;
16624;SDS011;8426;48.496;9.098;2022-11-20T15:24:08;1.60;;;0.60;;
16624;SDS011;8426;48.496;9.098;2022-11-20T15:29:13;2.10;;;0.50;;
16624;SDS011;8426;48.496;9.098;2022-11-20T15:34:21;2.55;;;0.80;;
16624;SDS011;8426;48.496;9.098;2022-11-20T15:39:27;0.47;;;0.40;;
16624;SDS011;8426;48.496;9.098;2022-11-20T15:44:31;0.60;;;0.60;;
16624;SDS011;8426;48.496;9.098;2022-11-20T15:49:36;0.70;;;0.65;;
16624;SDS011;8426;48.496;9.098;2022-11-20T15:54:40;1.47;;;0.70;;
16624;SDS011;8426;48.496;9.098;2022-11-20T15:59:43;3.95;;;0.80;;
16624;SDS011;8426;48.496;9.098;2022-11-20T16:04:49;2.72;;;0.90;;
16624;SDS011;8426;48.496;9.098;2022-11-20T16:09:52;1.52;;;0.80;;
16624;SDS011;8426;48.496;9.098;2022-11-20T16:14:58;0.95;;;0.65;;
16624;SDS011;8426;48.496;9.098;2022-11-20T16:20:26;1.25;;;0.85;;
16624;SDS011;8426;48.496;9.098;2022-11-20T16:25:30;2.47;;;0.82;;
16624;SDS011;8426;48.496;9.098;2022-11-20T16:30:34;2.05;;;0.88;;
16624;SDS011;8426;48.496;9.098;2022-11-20T16:35:39;5.63;;;0.63;;
16624;SDS011;8426;48.496;9.098;2022-11-20T16:40:42;1.20;;;0.73;;
16624;SDS011;8426;48.496;9.098;2022-11-20T16:45:46;1.10;;;0.70;;
16624;SDS011;8426;48.496;9.098;2022-11-20T16:50:51;1.83;;;0.77;;
16624;SDS011;8426;48.496;9.098;2022-11-20T16:55:55;0.82;;;0.57;;
16624;SDS011;8426;48.496;9.098;2022-11-20T17:01:03;0.85;;;0.50;;
16624;SDS011;8426;48.496;9.098;2022-11-20T17:06:13;0.60;;;0.50;;
16624;SDS011;8426;48.496;9.098;2022-11-20T17:11:18;1.95;;;0.75;;
16624;SDS011;8426;48.496;9.098;2022-11-20T17:16:22;1.10;;;0.65;;
16624;SDS011;8426;48.496;9.098;2022-11-20T17:21:28;0.50;;;0.50;;
16624;SDS011;8426;48.496;9.098;2022-11-20T17:26:33;1.55;;;0.52;;
16624;SDS011;8426;48.496;9.098;2022-11-20T17:31:38;1.60;;;0.82;;
16624;SDS011;8426;48.496;9.098;2022-11-20T17:36:44;0.98;;;0.77;;
16624;SDS011;8426;48.496;9.098;2022-11-20T17:41:47;0.93;;;0.70;;
16624;SDS011;8426;48.496;9.098;2022-11-20T17:47:11;1.52;;;0.63;;
16624;SDS011;8426;48.496;9.098;2022-11-20T17:52:15;3.50;;;0.98;;
16624;SDS011;8426;48.496;9.098;2022-11-20T17:57:19;0.73;;;0.60;;
16624;SDS011;8426;48.496;9.098;2022-11-20T18:02:39;0.68;;;0.60;;
16624;SDS011;8426;48.496;9.098;2022-11-20T18:07:44;1.00;;;0.70;;
16624;SDS011;8426;48.496;9.098;2022-11-20T18:12:48;1.25;;;0.88;;
16624;SDS011;8426;48.496;9.098;2022-11-20T18:17:51;1.42;;;0.85;;
16624;SDS011;8426;48.496;9.098;2022-11-20T18:22:56;3.83;;;1.00;;
16624;SDS011;8426;48.496;9.098;2022-11-20T18:28:00;0.93;;;0.75;;
16624;SDS011;8426;48.496;9.098;2022-11-20T18:33:04;1.50;;;0.73;;
16624;SDS011;8426;48.496;9.098;2022-11-20T18:38:12;1.70;;;1.20;;
16624;SDS011;8426;48.496;9.098;2022-11-20T18:43:15;1.80;;;1.10;;
16624;SDS011;8426;48.496;9.098;2022-11-20T18:48:36;1.23;;;0.88;;
16624;SDS011;8426;48.496;9.098;2022-11-20T18:53:40;2.13;;;0.85;;
16624;SDS011;8426;48.496;9.098;2022-11-20T18:58:48;1.83;;;1.00;;
16624;SDS011;8426;48.496;9.098;2022-11-20T19:03:51;2.67;;;1.02;;
16624;SDS011;8426;48.496;9.098;2022-11-20T19:08:56;1.65;;;1.00;;
16624;SDS011;8426;48.496;9.098;2022-11-20T19:14:00;0.85;;;0.60;;
16624;SDS011;8426;48.496;9.098;2022-11-20T19:19:04;1.15;;;0.80;;
16624;SDS011;8426;48.496;9.098;2022-11-20T19:24:10;0.95;;;0.73;;
16624;SDS011;8426;48.496;9.098;2022-11-20T19:29:14;1.10;;;0.70;;
16624;SDS011;8426;48.496;9.098;2022-11-20T19:34:22;1.30;;;0.80;;
16624;SDS011;8426;48.496;9.098;2022-11-20T19:39:27;0.85;;;0.60;;
16624;SDS011;8426;48.496;9.098;2022-11-20T19:44:31;0.60;;;0.55;;
16624;SDS011;8426;48.496;9.098;2022-11-20T19:49:34;1.88;;;0.80;;
16624;SDS011;8426;48.496;9.098;2022-11-20T19:54:39;1.60;;;0.65;;
16624;SDS011;8426;48.496;9.098;2022-11-20T19:59:43;2.00;;;0.70;;
16624;SDS011;8426;48.496;9.098;2022-11-20T20:04:46;0.82;;;0.80;;
16624;SDS011;8426;48.496;9.098;2022-11-20T20:09:51;0.80;;;0.70;;
16624;SDS011;8426;48.496;9.098;2022-11-20T20:14:55;1.30;;;0.73;;
16624;SDS011;8426;48.496;9.098;2022-11-20T20:19:59;0.80;;;0.50;;
16624;SDS011;8426;48.496;9.098;2022-11-20T20:25:05;1.55;;;0.50;;
16624;SDS011;8426;48.496;9.098;2022-11-20T20:30:09;0.47;;;0.47;;
16624;SDS011;8426;48.496;9.098;2022-11-20T20:35:14;4.68;;;0.73;;
16624;SDS011;8426;48.496;9.098;2022-11-20T20:40:19;1.08;;;0.70;;
16624;SDS011;8426;48.496;9.098;2022-11-20T20:45:22;0.73;;;0.50;;
16624;SDS011;8426;48.496;9.098;2022-11-20T20:50:28;0.60;;;0.40;;
16624;SDS011;8426;48.496;9.098;2022-11-20T20:55:32;0.40;;;0.38;;
16624;SDS011;8426;48.496;9.098;2022-11-20T21:00:36;0.40;;;0.40;;
16624;SDS011;8426;48.496;9.098;2022-11-20T21:05:41;0.40;;;0.40;;
16624;SDS011;8426;48.496;9.098;2022-11-20T21:10:47;0.40;;;0.40;;
16624;SDS011;8426;48.496;9.098;2022-11-20T21:15:51;1.38;;;0.50;;
16624;SDS011;8426;48.496;9.098;2022-11-20T21:20:54;0.40;;;0.40;;
16624;SDS011;8426;48.496;9.098;2022-11-20T21:26:17;0.43;;;0.43;;
16624;SDS011;8426;48.496;9.098;2022-11-20T21:31:21;3.13;;;0.40;;
16624;SDS011;8426;48.496;9.098;2022-11-20T21:36:28;0.43;;;0.43;;
16624;SDS011;8426;48.496;9.098;2022-11-20T21:41:34;0.60;;;0.50;;
16624;SDS011;8426;48.496;9.098;2022-11-20T21:46:38;0.40;;;0.40;;
16624;SDS011;8426;48.496;9.098;2022-11-20T21:51:46;1.13;;;0.50;;
16624;SDS011;8426;48.496;9.098;2022-11-20T21:56:53;1.20;;;0.40;;
16624;SDS011;8426;48.496;9.098;2022-11-20T22:02:00;0.60;;;0.50;;
16624;SDS011;8426;48.496;9.098;2022-11-20T22:07:04;0.77;;;0.50;;
16624;SDS011;8426;48.496;9.098;2022-11-20T22:12:12;0.50;;;0.50;;
16624;SDS011;8426;48.496;9.098;2022-11-20T22:17:15;1.15;;;0.60;;
16624;SDS011;8426;48.496;9.098;2022-11-20T22:22:38;0.70;;;0.50;;
16624;SDS011;8426;48.496;9.098;2022-11-20T22:27:45;0.53;;;0.47;;
16624;SDS011;8426;48.496;9.098;2022-11-20T22:32:50;0.60;;;0.45;;
16624;SDS011;8426;48.496;9.098;2022-11-20T22:37:54;1.08;;;0.57;;
16624;SDS011;8426;48.496;9.098;2022-11-20T22:42:59;2.08;;;0.75;;
16624;SDS011;8426;48.496;9.098;2022-11-20T22:48:03;0.60;;;0.52;;
16624;SDS011;8426;48.496;9.098;2022-11-20T22:53:07;0.75;;;0.50;;
16624;SDS011;8426;48.496;9.098;2022-11-20T22:58:20;2.53;;;0.73;;
16624;SDS011;8426;48.496;9.098;2022-11-20T23:03:26;1.55;;;0.63;;
16624;SDS011;8426;48.496;9.098;2022-11-20T23:08:32;1.40;;;0.67;;
16624;SDS011;8426;48.496;9.098;2022-11-20T23:13:38;1.23;;;0.50;;
16624;SDS011;8426;48.496;9.098;2022-11-20T23:18:42;0.75;;;0.60;;
16624;SDS011;8426;48.496;9.098;2022-11-20T23:23:46;1.67;;;0.70;;
16624;SDS011;8426;48.496;9.098;2022-11-20T23:28:53;0.82;;;0.60;;
16624;SDS011;8426;48.496;9.098;2022-11-20T23:33:57;4.47;;;1.02;;
16624;SDS011;8426;48.496;9.098;2022-11-20T23:39:01;1.37;;;0.60;;
16624;SDS011;8426;48.496;9.098;2022-11-20T23:44:06;0.50;;;0.50;;
16624;SDS011;8426;48.496;9.098;2022-11-20T23:49:09;0.77;;;0.60;;
16624;SDS011;8426;48.496;9.098;2022-11-20T23:54:13;1.33;;;0.50;;
16624;SDS011;8426;48.496;9.098;2022-11-20T23:59:18;0.60;;;0.60;;
